Terminal Aerodrome Forecast
Issued by NWS Shreveport, LA

Home | Current Version | Previous Version | Text Only | Print | Product List | Glossary On
Versions: 1 2 3 4 5 6 7 8 9 10 11 12 13 14 15
000
FTUS44 KSHV 260603 AAA
TAFGGG
TAF AMD
KGGG 260603Z 2606/2706 VRB03KT P6SM SCT008 BKN012
      TEMPO 2606/2610 BKN008
     FM261000 VRB03KT P6SM BKN008
      TEMPO 2610/2614 5SM BR SCT008 BKN012
     FM261400 VRB03KT P6SM BKN013
     FM261600 VRB04KT P6SM VCSH BKN035
     FM261800 07005KT P6SM VCTS OVC040CB
      TEMPO 2619/2621 5SM -TSRA BKN035CB
     FM262100 06006KT P6SM OVC035=

USA.gov is the U.S. government's official web portal to all federal, state and local government web resources and services.